Time;durP1;ratioP1;P1;durP2;ratioP2;P2;SDS_P1;SDS_P2;PMS_P1;PMS_P2;Temp;Humidity;BMP_temperature;BMP_pressure;BME280_temperature;BME280_humidity;BME280_pressure;Samples;Min_cycle;Max_cycle;Signal;HPM_P1;HPM_P2
2022/10/06 00:01:03;;;;;;;7.40;4.17;;;;;;;12.47;66.64;97913.27;1721371;83;25682;-86
2022/10/06 00:03:31;;;;;;;5.95;3.65;;;;;;;12.49;66.67;97919.83;1720936;83;25725;-87
2022/10/06 00:06:00;;;;;;;9.78;4.33;;;;;;;12.47;66.67;97917.33;1721349;83;27400;-86
2022/10/06 00:08:29;;;;;;;6.33;4.40;;;;;;;12.43;66.68;97926.94;1721251;83;26352;-86
2022/10/06 00:10:56;;;;;;;6.42;4.17;;;;;;;12.45;66.70;97928.89;1721357;83;26410;-85
2022/10/06 00:13:25;;;;;;;7.42;3.72;;;;;;;12.45;66.70;97930.23;1721086;83;26349;-86
2022/10/06 00:15:52;;;;;;;8.40;4.20;;;;;;;12.43;66.73;97928.30;1721512;83;25732;-86
2022/10/06 00:18:18;;;;;;;6.67;4.20;;;;;;;12.44;66.79;97926.39;1721336;83;27304;-85
2022/10/06 00:20:45;;;;;;;8.38;4.53;;;;;;;12.43;66.81;97924.23;1721349;83;25231;-86
2022/10/06 00:23:11;;;;;;;7.72;4.08;;;;;;;12.43;66.84;97926.10;1720979;83;25720;-86
2022/10/06 00:25:38;;;;;;;9.95;5.25;;;;;;;12.42;66.85;97929.33;1721527;83;25717;-85
2022/10/06 00:28:05;;;;;;;4.85;3.90;;;;;;;12.36;66.90;97926.09;1721439;83;25984;-86
2022/10/06 00:30:31;;;;;;;6.78;4.30;;;;;;;12.32;66.94;97935.66;1694560;83;27702;-85
2022/10/06 00:33:01;;;;;;;9.58;4.05;;;;;;;12.32;67.02;97926.74;1721117;83;25668;-86
2022/10/06 00:35:32;;;;;;;5.25;3.70;;;;;;;12.33;67.07;97929.22;1721203;83;25785;-86
2022/10/06 00:38:00;;;;;;;4.95;3.77;;;;;;;12.35;67.12;97929.01;1721471;83;25777;-86
2022/10/06 00:40:27;;;;;;;6.70;4.00;;;;;;;12.35;67.12;97927.66;1712700;83;25259;-86
2022/10/06 00:43:04;;;;;;;5.35;3.85;;;;;;;12.33;67.10;97927.86;1710215;83;27651;-85
2022/10/06 00:45:41;;;;;;;5.60;4.10;;;;;;;12.31;67.17;97923.72;1710082;83;25856;-86
2022/10/06 00:48:12;;;;;;;6.30;4.62;;;;;;;12.31;67.23;97925.91;1710158;83;25741;-86
2022/10/06 00:50:40;;;;;;;11.33;5.35;;;;;;;12.33;67.25;97927.86;1709276;83;25743;-86
2022/10/06 00:53:07;;;;;;;6.08;3.72;;;;;;;12.34;67.25;97924.11;1710167;83;25853;-86
2022/10/06 00:55:34;;;;;;;5.72;4.00;;;;;;;12.30;67.20;97925.59;1710199;83;28254;-85
2022/10/06 00:58:00;;;;;;;7.85;3.70;;;;;;;12.28;67.26;97929.03;1710282;83;25758;-86
2022/10/06 01:00:27;;;;;;;7.25;4.03;;;;;;;12.25;67.28;97931.62;1710201;83;25889;-86
2022/10/06 01:02:59;;;;;;;5.20;3.60;;;;;;;12.19;67.29;97933.00;1709790;83;25763;-86
2022/10/06 01:05:30;;;;;;;5.57;3.60;;;;;;;12.16;67.46;97932.05;1705033;83;26363;-87
2022/10/06 01:07:57;;;;;;;8.15;4.50;;;;;;;12.16;67.52;97940.17;1709104;83;28122;-86
2022/10/06 01:10:23;;;;;;;12.00;6.70;;;;;;;12.17;67.62;97939.13;1710001;83;26299;-85
2022/10/06 01:12:51;;;;;;;8.53;4.60;;;;;;;12.11;67.60;97939.95;1710135;83;25740;-85
2022/10/06 01:15:20;;;;;;;7.33;4.22;;;;;;;12.04;67.62;97939.96;1709923;83;26471;-86
2022/10/06 01:17:58;;;;;;;8.48;3.80;;;;;;;12.07;67.70;97941.42;1710034;83;26388;-86
2022/10/06 01:20:25;;;;;;;7.75;4.42;;;;;;;12.07;67.78;97941.42;1710016;83;27463;-86
2022/10/06 01:23:01;;;;;;;7.15;3.83;;;;;;;12.06;67.80;97946.00;1710007;83;25679;-86
2022/10/06 01:25:27;;;;;;;11.80;5.20;;;;;;;12.04;67.84;97951.30;1709487;83;25965;-86
2022/10/06 01:27:56;;;;;;;9.80;4.67;;;;;;;11.99;67.94;97949.20;1710024;83;25657;-86
2022/10/06 01:30:40;;;;;;;9.75;4.30;;;;;;;11.97;68.04;97946.39;1710038;83;25703;-86
2022/10/06 01:33:07;;;;;;;8.55;4.15;;;;;;;11.90;68.07;97947.23;1709926;83;27472;-86
2022/10/06 01:35:33;;;;;;;8.55;3.75;;;;;;;11.86;68.18;97948.67;1710051;83;25796;-86
2022/10/06 01:38:00;;;;;;;7.05;4.95;;;;;;;11.77;68.27;97951.27;1710130;83;25725;-86
2022/10/06 01:40:28;;;;;;;17.57;9.65;;;;;;;11.62;68.27;97955.98;1709818;82;25784;-87
2022/10/06 01:42:55;;;;;;;9.80;5.50;;;;;;;11.57;68.42;97946.84;1710046;83;25679;-86
2022/10/06 01:45:22;;;;;;;9.93;4.90;;;;;;;11.52;68.57;97951.48;1710031;83;26929;-86
2022/10/06 01:47:49;;;;;;;12.07;7.20;;;;;;;11.49;68.64;97955.95;1710200;83;25868;-86
2022/10/06 01:50:15;;;;;;;15.63;8.35;;;;;;;11.45;68.78;97950.66;1710322;83;25648;-86
2022/10/06 01:52:42;;;;;;;10.15;6.10;;;;;;;11.45;69.02;97952.01;1710322;83;25770;-86
2022/10/06 01:55:09;;;;;;;7.33;4.50;;;;;;;11.43;69.03;97952.72;1710152;83;25710;-86
2022/10/06 01:57:40;;;;;;;6.25;4.60;;;;;;;11.45;69.13;97960.95;1710263;83;28063;-87
2022/10/06 02:00:09;;;;;;;10.32;4.97;;;;;;;11.43;69.21;97950.02;1710443;83;25793;-87
2022/10/06 02:02:36;;;;;;;11.85;6.08;;;;;;;11.47;69.27;97953.98;1710182;83;25758;-87
2022/10/06 02:05:03;;;;;;;5.55;4.58;;;;;;;11.49;69.30;97955.95;1710239;83;25758;-86
2022/10/06 02:07:30;;;;;;;9.30;5.50;;;;;;;11.53;69.31;97955.86;1710328;83;25865;-86
2022/10/06 02:09:57;;;;;;;9.15;4.40;;;;;;;11.54;69.31;97960.23;1710253;83;28108;-86
2022/10/06 02:12:23;;;;;;;5.67;4.20;;;;;;;11.54;69.31;97962.94;1710182;83;25794;-86
2022/10/06 02:14:50;;;;;;;8.23;4.42;;;;;;;11.52;69.35;97963.66;1710271;83;25263;-86
2022/10/06 02:17:16;;;;;;;8.25;4.35;;;;;;;11.54;69.42;97973.76;1710230;83;26451;-86
2022/10/06 02:19:43;;;;;;;6.22;3.90;;;;;;;11.55;69.46;97973.55;1710256;83;25702;-86
2022/10/06 02:22:09;;;;;;;9.75;4.53;;;;;;;11.54;69.46;97967.00;1710285;83;27458;-85
2022/10/06 02:24:36;;;;;;;11.10;5.53;;;;;;;11.54;69.49;97968.34;1710232;83;25647;-86
2022/10/06 02:27:04;;;;;;;8.75;4.33;;;;;;;11.52;69.54;97971.25;1710256;83;25739;-86
2022/10/06 02:29:30;;;;;;;9.98;6.03;;;;;;;11.55;69.62;97972.72;1710168;83;25670;-86
2022/10/06 02:31:57;;;;;;;6.72;4.95;;;;;;;11.56;69.60;97971.69;1710397;83;25686;-86
2022/10/06 02:34:23;;;;;;;8.73;4.70;;;;;;;11.57;69.66;97977.41;1710253;83;27430;-87
2022/10/06 02:36:50;;;;;;;9.30;4.50;;;;;;;11.56;69.67;97975.74;1710172;83;25742;-86
2022/10/06 02:39:16;;;;;;;10.53;4.70;;;;;;;11.58;69.65;97968.78;1710216;83;25208;-86
2022/10/06 02:41:43;;;;;;;5.25;3.75;;;;;;;11.61;69.63;97971.89;1720875;82;26167;-86
2022/10/06 02:44:10;;;;;;;10.80;4.53;;;;;;;11.59;69.59;97975.34;1721563;83;25718;-86
2022/10/06 02:46:37;;;;;;;6.45;4.03;;;;;;;11.55;69.61;97975.42;1721427;83;27604;-87
2022/10/06 02:49:03;;;;;;;10.32;4.25;;;;;;;11.52;69.66;97977.17;1721428;83;25798;-86
2022/10/06 02:51:31;;;;;;;11.20;4.00;;;;;;;11.51;69.71;97980.91;1721444;83;25746;-86
2022/10/06 02:53:58;;;;;;;6.42;4.42;;;;;;;11.49;69.77;97988.39;1721376;83;26504;-86
2022/10/06 02:56:25;;;;;;;6.90;4.40;;;;;;;11.45;69.81;97984.45;1721507;83;25836;-86
2022/10/06 02:58:53;;;;;;;7.00;4.37;;;;;;;11.41;69.86;97987.23;1721447;83;27359;-86
2022/10/06 03:01:24;;;;;;;5.65;4.00;;;;;;;11.36;69.92;97991.88;1721433;83;25741;-86
2022/10/06 03:03:51;;;;;;;8.05;5.35;;;;;;;11.31;69.89;97993.02;1721445;83;25781;-86
2022/10/06 03:06:27;;;;;;;12.28;6.40;;;;;;;11.22;69.97;97993.40;1721418;83;25784;-85
2022/10/06 03:08:58;;;;;;;7.62;4.90;;;;;;;11.15;70.16;98007.70;1721448;83;25737;-86
2022/10/06 03:11:30;;;;;;;8.03;5.05;;;;;;;11.12;70.26;98003.20;1721497;83;27445;-86
2022/10/06 03:13:57;;;;;;;10.68;5.47;;;;;;;11.12;70.37;98012.14;1721737;83;25770;-86
2022/10/06 03:16:31;;;;;;;8.93;4.75;;;;;;;11.05;70.43;98003.18;1721496;83;25863;-86
2022/10/06 03:18:58;;;;;;;5.53;4.47;;;;;;;10.96;70.51;97998.98;1721435;83;25957;-86
2022/10/06 03:21:28;;;;;;;8.95;4.90;;;;;;;10.92;70.65;98004.45;1721620;83;25734;-87
2022/10/06 03:23:56;;;;;;;6.40;4.30;;;;;;;10.95;70.73;98002.71;1721379;83;27414;-86
2022/10/06 03:26:26;;;;;;;6.67;3.95;;;;;;;10.96;70.73;98002.20;1721368;83;25790;-86
2022/10/06 03:28:54;;;;;;;5.97;4.35;;;;;;;10.94;70.72;98006.45;1721499;83;26515;-87
2022/10/06 03:31:21;;;;;;;9.63;4.87;;;;;;;10.94;70.77;98010.50;1721403;83;26457;-86
2022/10/06 03:33:47;;;;;;;4.53;4.03;;;;;;;10.93;70.85;98011.52;1721407;83;25758;-86
2022/10/06 03:36:18;;;;;;;5.70;4.65;;;;;;;10.90;70.91;98011.91;1721432;83;28242;-86
2022/10/06 03:38:44;;;;;;;6.42;4.40;;;;;;;10.90;70.94;98013.27;1721363;83;25792;-86
2022/10/06 03:41:17;;;;;;;9.48;5.15;;;;;;;10.86;71.02;98015.23;1714026;82;25755;-86
2022/10/06 03:43:47;;;;;;;24.40;12.40;;;;;;;10.72;70.95;98015.14;1710088;83;25749;-86
2022/10/06 03:46:18;;;;;;;17.42;9.43;;;;;;;10.66;71.11;98012.37;1710306;83;25742;-86
2022/10/06 03:48:47;;;;;;;17.27;8.25;;;;;;;10.63;71.21;98021.70;1710028;83;32560;-86
2022/10/06 03:51:20;;;;;;;11.18;6.25;;;;;;;10.62;71.29;98021.41;1709964;83;26066;-88
2022/10/06 03:53:50;;;;;;;8.38;5.37;;;;;;;10.59;71.32;98020.95;1710110;83;25748;-86
2022/10/06 03:56:27;;;;;;;8.78;4.95;;;;;;;10.48;71.34;98021.50;1710154;83;25765;-87
2022/10/06 03:58:58;;;;;;;9.03;4.10;;;;;;;10.40;71.40;98019.25;1710145;83;26351;-85
2022/10/06 04:01:32;;;;;;;6.42;4.60;;;;;;;10.36;71.57;98009.89;1710137;83;28326;-86
2022/10/06 04:04:00;;;;;;;7.92;4.60;;;;;;;10.39;71.76;98016.73;1707493;83;26389;-87
2022/10/06 04:06:31;;;;;;;8.55;4.87;;;;;;;10.41;71.80;98018.73;1710068;83;25716;-86
2022/10/06 04:08:58;;;;;;;7.50;4.78;;;;;;;10.44;71.93;98032.68;1710165;83;25723;-86
2022/10/06 04:11:28;;;;;;;6.15;5.17;;;;;;;10.42;71.95;98029.34;1710222;83;25726;-86
2022/10/06 04:13:59;;;;;;;6.92;4.60;;;;;;;10.46;71.96;98029.28;1710173;83;27585;-86
2022/10/06 04:16:32;;;;;;;6.03;4.35;;;;;;;10.50;71.99;98032.94;1710007;83;25726;-87
2022/10/06 04:19:03;;;;;;;5.95;4.10;;;;;;;10.53;72.02;98037.92;1709880;83;25698;-86
2022/10/06 04:21:32;;;;;;;7.62;4.60;;;;;;;10.55;72.00;98041.27;1710143;83;25723;-87
2022/10/06 04:24:00;;;;;;;7.03;4.50;;;;;;;10.58;72.04;98040.88;1710154;83;26534;-86
2022/10/06 04:26:30;;;;;;;11.88;4.12;;;;;;;10.59;72.01;98043.91;1710298;83;27621;-88
2022/10/06 04:28:57;;;;;;;6.05;4.17;;;;;;;10.58;71.99;98044.94;1710125;83;25829;-86
2022/10/06 04:31:28;;;;;;;9.55;4.90;;;;;;;10.58;71.96;98043.07;1710110;83;25279;-86
2022/10/06 04:33:57;;;;;;;9.58;5.28;;;;;;;10.59;71.93;98049.30;1710152;83;25976;-86
2022/10/06 04:36:31;;;;;;;5.70;4.33;;;;;;;10.52;71.82;98049.23;1709933;83;25715;-86
2022/10/06 04:39:00;;;;;;;8.68;5.20;;;;;;;10.43;71.79;98037.75;1710084;83;27454;-86
2022/10/06 04:41:33;;;;;;;8.85;4.62;;;;;;;10.37;71.83;98039.06;1716356;81;25870;-86
2022/10/06 04:44:01;;;;;;;13.78;6.55;;;;;;;10.33;71.88;98046.70;1720973;83;25734;-87
2022/10/06 04:46:30;;;;;;;10.95;5.83;;;;;;;10.27;71.90;98042.06;1721222;83;25681;-87
2022/10/06 04:48:57;;;;;;;7.05;6.12;;;;;;;10.23;72.01;98046.20;1721449;83;25714;-86
2022/10/06 04:51:26;;;;;;;10.98;5.70;;;;;;;10.20;72.05;98049.28;1721288;83;46707;-85
2022/10/06 04:53:53;;;;;;;9.70;5.35;;;;;;;10.17;72.06;98050.97;1721122;83;25804;-85
2022/10/06 04:56:30;;;;;;;5.45;4.42;;;;;;;10.13;72.16;98052.92;1721258;83;25238;-85
2022/10/06 04:58:58;;;;;;;6.95;5.33;;;;;;;10.02;72.27;98045.63;1721164;83;25915;-85
2022/10/06 05:01:31;;;;;;;9.13;5.03;;;;;;;9.98;72.39;98051.63;1721533;83;25704;-85
2022/10/06 05:04:00;;;;;;;6.47;4.58;;;;;;;9.95;72.48;98045.26;1721302;83;27358;-84
2022/10/06 05:06:32;;;;;;;5.87;4.40;;;;;;;9.94;72.68;98048.98;1721228;83;25790;-86
2022/10/06 05:09:08;;;;;;;8.58;4.67;;;;;;;9.96;72.81;98047.77;1721648;83;25808;-86
2022/10/06 05:11:35;;;;;;;15.58;8.88;;;;;;;9.98;72.89;98051.63;1721337;83;25749;-87
2022/10/06 05:14:01;;;;;;;9.30;5.70;;;;;;;9.94;72.88;98051.16;1721390;83;25797;-86
2022/10/06 05:16:30;;;;;;;7.15;4.42;;;;;;;9.95;72.95;98054.19;1721277;83;27189;-86
2022/10/06 05:18:57;;;;;;;6.03;5.00;;;;;;;9.96;73.08;98058.55;1720981;83;26384;-86
2022/10/06 05:21:28;;;;;;;9.70;5.47;;;;;;;9.98;73.09;98061.06;1721303;83;25837;-86
2022/10/06 05:23:55;;;;;;;6.58;4.87;;;;;;;9.97;73.26;98056.70;1721405;83;25712;-86
2022/10/06 05:26:26;;;;;;;10.08;6.40;;;;;;;10.03;73.40;98062.14;1721458;83;25516;-87
2022/10/06 05:28:52;;;;;;;13.15;6.70;;;;;;;10.06;73.37;98061.77;1721430;83;27212;-86
2022/10/06 05:31:23;;;;;;;14.80;7.42;;;;;;;10.12;73.33;98068.27;1721315;83;25722;-87
2022/10/06 05:33:50;;;;;;;10.60;7.20;;;;;;;10.14;73.33;98068.92;1721431;83;25729;-86
2022/10/06 05:36:20;;;;;;;10.08;6.53;;;;;;;10.15;73.37;98067.02;1721481;83;25734;-86
2022/10/06 05:38:47;;;;;;;13.62;6.60;;;;;;;10.14;73.33;98063.52;1721209;83;26101;-86
2022/10/06 05:41:17;;;;;;;11.57;6.53;;;;;;;10.17;73.35;98075.77;1721306;83;27367;-86
2022/10/06 05:43:44;;;;;;;9.53;5.78;;;;;;;10.16;73.36;98068.19;1721402;83;25284;-86
2022/10/06 05:46:23;;;;;;;14.70;6.97;;;;;;;10.18;73.47;98073.39;1721237;83;26312;-86
2022/10/06 05:48:54;;;;;;;13.22;7.15;;;;;;;10.18;73.55;98075.61;1721494;83;25737;-87
2022/10/06 05:51:22;;;;;;;15.35;8.53;;;;;;;10.13;73.63;98086.13;1721389;83;25723;-86
2022/10/06 05:53:49;;;;;;;17.62;10.25;;;;;;;10.16;73.70;98084.88;1721623;83;27555;-87
2022/10/06 05:56:25;;;;;;;20.68;9.98;;;;;;;10.13;73.80;98083.43;1721227;83;26289;-86
2022/10/06 05:58:54;;;;;;;14.98;7.62;;;;;;;10.14;73.97;98083.75;1721124;83;25819;-85
2022/10/06 06:01:27;;;;;;;16.62;8.08;;;;;;;10.17;74.11;98090.09;1694628;83;26517;-86
2022/10/06 06:04:01;;;;;;;20.85;9.30;;;;;;;10.24;74.18;98095.09;1721401;83;25938;-87
2022/10/06 06:06:41;;;;;;;22.67;11.68;;;;;;;10.31;74.33;98099.19;1721182;83;27402;-85
2022/10/06 06:09:15;;;;;;;20.68;11.00;;;;;;;10.35;74.36;98100.48;1720102;83;25709;-85
2022/10/06 06:11:46;;;;;;;17.98;10.75;;;;;;;10.41;74.37;98103.23;1721337;83;25809;-87
2022/10/06 06:14:15;;;;;;;21.87;11.25;;;;;;;10.43;74.53;98103.87;1721383;83;25896;-86
2022/10/06 06:16:43;;;;;;;20.25;11.93;;;;;;;10.43;74.57;98106.58;1721393;83;25234;-86
2022/10/06 06:19:12;;;;;;;18.10;11.40;;;;;;;10.46;74.63;98103.50;1721335;83;27368;-86
2022/10/06 06:21:39;;;;;;;18.23;10.13;;;;;;;10.53;74.79;98106.76;1721350;83;25857;-87
2022/10/06 06:24:06;;;;;;;16.48;9.50;;;;;;;10.60;74.87;98103.63;1721385;83;25793;-87
2022/10/06 06:26:37;;;;;;;10.98;5.95;;;;;;;10.69;75.07;98103.28;1721359;83;25757;-86
2022/10/06 06:29:05;;;;;;;9.98;5.60;;;;;;;10.81;75.03;98105.77;1721413;83;25747;-87
2022/10/06 06:31:38;;;;;;;8.75;5.40;;;;;;;10.93;74.90;98104.72;1721472;83;28087;-86
2022/10/06 06:34:06;;;;;;;10.78;5.85;;;;;;;11.05;74.95;98113.95;1721387;83;25745;-87
2022/10/06 06:36:39;;;;;;;7.72;5.35;;;;;;;11.17;74.85;98112.37;1721416;83;26291;-87
2022/10/06 06:39:12;;;;;;;6.15;4.50;;;;;;;11.28;74.88;98108.79;1721448;83;25674;-87
2022/10/06 06:41:41;;;;;;;;;;;;;;;11.41;74.84;98113.76;1719751;82;26449;-86
2022/10/06 06:44:10;;;;;;;4.95;3.72;;;;;;;11.55;75.00;98118.73;1710068;83;27426;-88
2022/10/06 06:46:37;;;;;;;6.17;4.17;;;;;;;11.65;74.94;98117.00;1710076;83;25952;-86
2022/10/06 06:49:05;;;;;;;8.75;4.00;;;;;;;11.78;74.83;98115.22;1710154;83;25747;-86
2022/10/06 06:51:40;;;;;;;10.88;4.62;;;;;;;11.94;74.81;98118.63;1710386;83;25753;-86
2022/10/06 06:54:09;;;;;;;11.90;4.72;;;;;;;12.09;74.80;98118.75;1710230;83;25748;-87
2022/10/06 06:56:37;;;;;;;6.35;3.80;;;;;;;12.26;74.71;98115.17;1710307;83;27485;-87
2022/10/06 06:59:09;;;;;;;5.03;3.72;;;;;;;12.43;74.54;98102.93;1710014;83;25971;-87
2022/10/06 07:01:43;;;;;;;7.22;4.47;;;;;;;12.63;74.55;98108.35;1710579;83;26593;-87
2022/10/06 07:04:12;;;;;;;7.40;3.80;;;;;;;12.87;74.56;98106.38;1710273;83;26449;-86
2022/10/06 07:06:40;;;;;;;5.05;3.72;;;;;;;13.08;74.31;98105.84;1710385;83;25719;-86
2022/10/06 07:09:09;;;;;;;9.08;5.20;;;;;;;13.24;74.02;98104.92;1710279;83;27376;-87
2022/10/06 07:11:38;;;;;;;7.97;4.95;;;;;;;13.48;73.84;98106.64;1710230;83;25747;-86
2022/10/06 07:14:10;;;;;;;6.35;3.87;;;;;;;13.76;73.67;98105.83;1710119;83;25245;-87
2022/10/06 07:25:06;;;;;;;8.73;4.58;;;;;;;15.25;72.21;98112.88;1709999;83;25765;-86
2022/10/06 07:27:41;;;;;;;5.22;2.77;;;;;;;15.67;71.63;98109.88;1709971;83;25271;-87
2022/10/06 07:30:16;;;;;;;4.55;2.25;;;;;;;15.91;70.63;98117.66;1710257;83;26536;-85
2022/10/06 07:32:41;;;;;;;4.70;2.35;;;;;;;16.03;69.75;98110.91;1710143;83;26408;-87
2022/10/06 07:35:08;;;;;;;3.95;2.55;;;;;;;16.13;69.37;98112.02;1710188;83;27351;-86
2022/10/06 07:37:35;;;;;;;7.75;2.62;;;;;;;16.30;69.36;98116.84;1710086;83;25814;-82
2022/10/06 07:40:04;;;;;;;5.97;2.70;;;;;;;16.51;69.17;98117.16;1710164;83;25263;-87
2022/10/06 07:42:47;;;;;;;5.33;2.45;;;;;;;16.88;68.44;98115.69;1716686;82;26530;-85
2022/10/06 07:47:46;;;;;;;3.90;2.42;;;;;;;17.23;67.13;98123.91;1721466;83;27417;-85
2022/10/06 07:50:12;;;;;;;5.08;2.80;;;;;;;17.24;66.41;98120.95;1721516;83;25762;-86
2022/10/06 07:52:39;;;;;;;5.37;2.90;;;;;;;17.22;65.98;98120.88;1721498;83;25821;-87
2022/10/06 07:55:07;;;;;;;5.60;2.92;;;;;;;17.21;65.71;98119.22;1721530;83;25852;-86
2022/10/06 07:57:34;;;;;;;7.65;3.67;;;;;;;17.18;65.80;98131.42;1721292;83;26308;-86
2022/10/06 08:00:04;;;;;;;7.83;4.40;;;;;;;17.19;65.73;98126.80;1721248;83;27422;-86
2022/10/06 08:02:30;;;;;;;10.08;3.95;;;;;;;17.18;65.76;98131.42;1721316;83;25753;-88
2022/10/06 08:04:58;;;;;;;7.05;3.83;;;;;;;17.18;65.69;98136.05;1721227;83;26230;-86
2022/10/06 08:07:25;;;;;;;8.80;4.22;;;;;;;17.18;65.49;98136.88;1721516;83;25646;-86
2022/10/06 08:09:52;;;;;;;6.00;3.95;;;;;;;17.21;65.27;98129.59;1721555;83;25991;-86
2022/10/06 08:12:36;;;;;;;6.15;3.98;;;;;;;17.31;65.48;98139.09;1721541;83;27373;-86
2022/10/06 08:15:05;;;;;;;9.90;4.05;;;;;;;17.48;65.56;98134.59;1721422;83;25690;-86
2022/10/06 08:17:36;;;;;;;12.33;3.72;;;;;;;17.64;65.70;98131.98;1721566;83;25729;-86
2022/10/06 08:20:07;;;;;;;4.72;3.45;;;;;;;17.78;65.60;98135.30;1721450;83;25746;-86
2022/10/06 08:22:34;;;;;;;4.97;3.50;;;;;;;18.06;65.27;98141.37;1721551;83;25781;-86
2022/10/06 08:25:02;;;;;;;4.30;3.35;;;;;;;18.40;65.02;98138.76;1721508;83;27228;-86
2022/10/06 08:27:29;;;;;;;5.22;3.15;;;;;;;18.63;63.94;98145.52;1721361;83;25703;-86
2022/10/06 08:29:56;;;;;;;8.60;3.90;;;;;;;18.92;63.57;98142.23;1721500;83;25790;-86
2022/10/06 08:32:23;;;;;;;4.85;3.10;;;;;;;19.11;62.84;98134.61;1721535;83;25841;-86
2022/10/06 08:34:51;;;;;;;5.47;3.00;;;;;;;19.48;62.68;98141.23;1721555;83;25744;-86
2022/10/06 08:37:25;;;;;;;8.73;3.20;;;;;;;19.85;62.28;98142.08;1721450;83;27387;-86
2022/10/06 08:39:51;;;;;;;4.55;2.67;;;;;;;20.22;61.86;98147.77;1721213;83;25645;-86
2022/10/06 08:42:34;;;;;;;6.70;2.85;;;;;;;20.47;61.10;98151.68;1717283;83;25701;-85
2022/10/06 08:45:13;;;;;;;6.05;3.67;;;;;;;20.76;60.65;98148.70;1709940;82;26674;-86
2022/10/06 08:48:01;;;;;;;4.58;3.22;;;;;;;21.03;60.20;98146.76;1701832;83;26220;-86
2022/10/06 08:50:32;;;;;;;7.37;3.60;;;;;;;21.18;60.01;98129.59;1700948;83;27380;-86
2022/10/06 08:53:10;;;;;;;5.90;3.08;;;;;;;21.58;59.17;98151.09;1710129;83;25786;-87
2022/10/06 08:56:01;;;;;;;4.87;3.17;;;;;;;21.77;58.79;98158.35;1709143;83;25734;-86
2022/10/06 08:58:54;;;;;;;7.62;3.83;;;;;;;21.79;58.27;98161.12;1710276;83;25754;-86
2022/10/06 09:01:40;;;;;;;5.75;4.05;;;;;;;21.65;58.00;98172.83;1709937;83;25780;-85
2022/10/06 09:04:10;;;;;;;7.78;4.12;;;;;;;21.49;58.12;98169.16;1710149;83;27360;-86
2022/10/06 09:06:52;;;;;;;11.22;3.80;;;;;;;21.41;57.92;98175.12;1709891;83;25852;-86
2022/10/06 09:09:46;;;;;;;4.55;3.10;;;;;;;21.32;57.69;98176.70;1710171;83;25733;-86
2022/10/06 09:12:33;;;;;;;6.03;4.35;;;;;;;21.23;57.50;98190.63;1694620;83;26474;-86
2022/10/06 09:15:39;;;;;;;9.88;6.08;;;;;;;21.14;57.40;98189.69;1710226;83;25831;-86
2022/10/06 09:18:31;;;;;;;5.65;3.60;;;;;;;20.81;57.53;98173.44;1710094;83;27525;-86
2022/10/06 09:21:01;;;;;;;4.42;3.22;;;;;;;20.81;57.53;98173.44;1710239;83;25729;-87
2022/10/06 09:23:46;;;;;;;7.67;3.37;;;;;;;20.72;57.96;98196.94;1710050;83;25761;-86
2022/10/06 09:26:21;;;;;;;5.00;3.35;;;;;;;20.72;57.96;98196.94;1710047;83;25794;-87
2022/10/06 09:28:50;;;;;;;6.83;3.40;;;;;;;20.67;57.51;98203.73;1710319;83;25695;-87
2022/10/06 09:31:30;;;;;;;8.53;3.67;;;;;;;20.67;57.31;98196.88;1710101;83;27375;-87
2022/10/06 09:34:22;;;;;;;6.58;4.20;;;;;;;20.72;58.28;98196.94;1710098;83;25822;-87
2022/10/06 09:37:02;;;;;;;14.95;9.23;;;;;;;20.72;58.28;98196.94;1710332;83;25698;-86
2022/10/06 09:39:35;;;;;;;19.15;11.97;;;;;;;20.85;57.45;98199.28;1710106;83;26437;-87
2022/10/06 09:42:05;;;;;;;;;;;;;;;20.85;57.45;98199.28;1713908;82;25714;-87
2022/10/06 09:44:43;;;;;;;6.72;4.08;;;;;;;21.06;56.83;98201.14;1721124;83;28250;-86
2022/10/06 09:47:31;;;;;;;6.67;3.72;;;;;;;21.27;57.26;98208.22;1721461;83;25235;-87
2022/10/06 09:50:21;;;;;;;5.80;4.30;;;;;;;21.44;57.11;98203.45;1721189;83;25888;-86
2022/10/06 09:53:04;;;;;;;5.35;3.00;;;;;;;21.46;56.95;98206.77;1721071;83;26590;-86
2022/10/06 09:55:42;;;;;;;6.60;3.87;;;;;;;21.45;56.53;98190.00;1721234;83;26466;-86
2022/10/06 09:58:22;;;;;;;20.23;11.78;;;;;;;21.71;55.94;98216.59;1721078;83;26875;-86
2022/10/06 10:00:58;;;;;;;17.60;9.38;;;;;;;21.80;55.46;98213.62;1721257;83;25679;-87
2022/10/06 10:03:50;;;;;;;9.75;6.15;;;;;;;21.83;55.82;98226.02;1721393;83;25682;-87
2022/10/06 10:06:28;;;;;;;7.95;4.58;;;;;;;21.90;54.94;98230.17;1721376;83;25820;-87
2022/10/06 10:09:24;;;;;;;4.55;3.50;;;;;;;21.72;55.34;98223.73;1721230;83;25901;-86
2022/10/06 10:12:24;;;;;;;4.53;3.00;;;;;;;21.69;55.38;98231.13;1679825;84;28193;-87
2022/10/06 10:15:20;;;;;;;6.12;4.17;;;;;;;21.73;55.38;98237.77;1723565;83;25886;-87
2022/10/06 10:18:07;;;;;;;4.87;3.40;;;;;;;21.76;54.93;98230.34;1723837;83;25809;-86
2022/10/06 10:20:38;;;;;;;10.70;7.03;;;;;;;21.62;55.35;98235.99;1723092;83;25778;-86
2022/10/06 10:23:33;;;;;;;8.50;5.17;;;;;;;21.59;54.98;98236.55;1724154;83;25383;-87
2022/10/06 10:26:07;;;;;;;9.25;4.10;;;;;;;21.56;54.96;98243.92;1723762;83;28285;-87
2022/10/06 10:29:00;;;;;;;7.58;3.87;;;;;;;21.53;54.88;98237.58;1721508;82;25813;-86
2022/10/06 10:31:54;;;;;;;;;;;;;;;21.57;54.84;98238.72;1726584;83;26247;-87
2022/10/06 10:34:58;;;;;;;11.20;6.62;;;;;;;21.54;54.55;98235.11;1723901;83;26629;-87
2022/10/06 10:37:44;;;;;;;9.85;6.58;;;;;;;21.45;55.25;98231.20;1723297;83;25782;-87
2022/10/06 10:40:41;;;;;;;11.03;8.35;;;;;;;21.28;54.88;98219.49;1723431;83;28347;-86
2022/10/06 10:43:48;;;;;;;19.82;12.50;;;;;;;21.28;54.88;98219.49;1723340;82;25741;-87
2022/10/06 10:46:29;;;;;;;27.37;18.57;;;;;;;21.36;54.89;98235.52;1724008;83;25271;-88
2022/10/06 10:49:07;;;;;;;23.22;13.58;;;;;;;21.37;55.17;98234.43;1757746;81;25793;-88
2022/10/06 10:51:39;;;;;;;16.87;11.55;;;;;;;21.30;55.49;98237.91;1757160;81;25732;-86
2022/10/06 10:54:14;;;;;;;12.80;9.23;;;;;;;21.27;55.66;98234.30;1757452;81;27393;-87
2022/10/06 10:56:42;;;;;;;9.43;5.20;;;;;;;21.31;55.60;98241.77;1756913;81;25242;-87
2022/10/06 10:59:35;;;;;;;10.68;7.15;;;;;;;21.24;55.35;98220.58;1757369;81;25655;-88
2022/10/06 11:02:18;;;;;;;7.20;6.17;;;;;;;21.32;55.62;98235.73;1757797;81;26505;-87
2022/10/06 11:04:56;;;;;;;12.65;6.40;;;;;;;21.29;55.89;98229.39;1756297;81;25761;-87
2022/10/06 11:07:29;;;;;;;8.85;6.22;;;;;;;21.30;55.97;98236.55;1757732;81;27452;-87
2022/10/06 11:10:33;;;;;;;7.50;5.25;;;;;;;21.43;56.05;98233.37;1757420;81;26352;-87
2022/10/06 11:13:11;;;;;;;5.62;3.85;;;;;;;21.51;55.69;98232.34;1756132;81;25743;-86
2022/10/06 11:16:07;;;;;;;6.58;3.98;;;;;;;21.55;55.29;98223.03;1752312;81;25765;-87
2022/10/06 11:18:48;;;;;;;10.53;7.15;;;;;;;21.53;54.92;98221.09;1756509;80;25740;-88
2022/10/06 11:21:35;;;;;;;7.22;4.33;;;;;;;21.44;55.18;98224.05;1757477;81;27475;-86
2022/10/06 11:24:35;;;;;;;4.90;3.37;;;;;;;21.43;55.15;98226.50;1694669;84;26032;-87
2022/10/06 11:27:37;;;;;;;3.85;3.00;;;;;;;21.41;54.76;98228.67;1694830;84;25761;-87
2022/10/06 11:30:25;;;;;;;4.00;3.12;;;;;;;21.39;54.63;98230.31;1694988;84;26420;-86
2022/10/06 11:33:12;;;;;;;6.35;3.87;;;;;;;21.39;54.81;98223.98;1660503;86;25766;-86
2022/10/06 11:35:43;;;;;;;18.35;11.45;;;;;;;21.37;54.79;98229.77;1674974;85;27438;-87
2022/10/06 11:38:30;;;;;;;28.55;17.82;;;;;;;21.20;55.26;98216.14;1628803;88;25910;-87
2022/10/06 11:41:12;;;;;;;19.73;12.43;;;;;;;21.20;55.26;98216.14;1628863;88;26521;-86
2022/10/06 11:44:27;;;;;;;11.30;8.05;;;;;;;21.32;54.80;98232.99;1614904;85;25895;-87
2022/10/06 11:47:02;;;;;;;14.25;6.67;;;;;;;21.26;55.00;98238.14;1602544;89;25915;-86
2022/10/06 11:49:34;;;;;;;13.05;8.10;;;;;;;21.27;55.04;98232.94;1602611;89;27428;-87
2022/10/06 11:52:12;;;;;;;5.85;4.95;;;;;;;21.37;55.11;98234.43;1602410;89;33310;-86
2022/10/06 11:54:54;;;;;;;13.38;7.87;;;;;;;21.49;55.15;98237.26;1602729;89;26500;-87
2022/10/06 11:57:30;;;;;;;10.53;5.87;;;;;;;21.59;55.04;98235.17;1602452;89;26542;-87
2022/10/06 12:00:05;;;;;;;5.65;4.12;;;;;;;21.50;55.07;98233.97;1602539;89;25758;-86
2022/10/06 12:02:38;;;;;;;4.35;3.62;;;;;;;21.60;55.11;98242.33;1644199;87;27401;-87
2022/10/06 12:05:20;;;;;;;5.50;3.42;;;;;;;21.60;55.11;98242.33;1719972;83;25786;-88
2022/10/06 12:07:58;;;;;;;6.28;3.27;;;;;;;21.64;55.13;98239.31;1720387;83;32558;-86
2022/10/06 12:10:32;;;;;;;8.35;3.22;;;;;;;21.69;55.26;98246.23;1720197;83;26445;-87